Terminal Aerodrome Forecast
Issued by NWS

Home | Current Version | Previous Version | Text Only | Print | Product List | Glossary On
Versions: 1 2 3 4 5 6 7 8 9 10 11 12 13 14 15 16 17 18 19 20 21 22 23 24 25 26 27 28 29 30 31 32 33 34 35 36 37 38 39 40
000
FTUS44 KHGX 162329
TAFSGR
TAF
KSGR 162329Z 1700/1724 18012KT P6SM SCT025 SCT080 BKN250
     FM170300 15005KT P6SM BKN010
     FM170700 14004KT 3SM BR OVC005
     FM170900 VRB03KT 2SM BR OVC003
     FM171600 14005KT 5SM BR VCSH BKN012 BKN025
     FM171800 13008KT P6SM VCSH BKN025=

USA.gov is the U.S. government's official web portal to all federal, state and local government web resources and services.